This is the latest recevied weather packets stored in our database for station/object KE7TOP-15. If no packets are shown the sender has not sent any weather packets the latest 10 day(s).
| Time | Temp. | Humidity | Pressure | Rain* | Wind** | Luminosity | Snow |
|---|---|---|---|---|---|---|---|
| 1777594215 | 20.56° C | 18% | 1016.9 hPa | 0 mm | - | 328 W/m² | - |
| 1777593023 | 20.56° C | 19% | 1017 hPa | 0 mm | - | 182 W/m² | - |
| 1777590620 | 21.11° C | 18% | 1017.3 hPa | 0 mm | - | 564 W/m² | - |
| 1777588818 | 21.11° C | 18% | 1017.5 hPa | 0 mm | - | 547 W/m² | - |
| 1777587644 | 21.67° C | 17% | 1017.8 hPa | 0 mm | - | 202 W/m² | - |
| 1777583418 | 20° C | 19% | 1018.4 hPa | 0 mm | - | 713 W/m² | - |
| 1777581015 | 20.56° C | 19% | 1018.2 hPa | 0 mm | - | 684 W/m² | - |
| 1777579221 | 20° C | 20% | 1018.7 hPa | 0 mm | - | 830 W/m² | - |
| 1777577419 | 18.89° C | 21% | 1019.2 hPa | 0 mm | - | 831 W/m² | - |
| 1777575616 | 18.89° C | 21% | 1019.5 hPa | 0 mm | - | 793 W/m² | - |
| 1777569022 | 16.11° C | 26% | 1019.9 hPa | 0 mm | - | 575 W/m² | - |
| 1777557024 | 0° C | 89% | 1020 hPa | 0 mm | - | 24 W/m² | - |
| 1777555219 | -0.56° C | 87% | 1019.8 hPa | 0 mm | - | 10 W/m² | - |
| 1777552845 | 0° C | 85% | 1019.6 hPa | 0 mm | - | 0 W/m² | - |
| 1777552223 | 0.56° C | 82% | 1019.7 hPa | 0 mm | - | 0 W/m² | - |
| 1777551020 | 0.56° C | 87% | 1019.5 hPa | 0 mm | - | 0 W/m² | - |
| 1777549817 | 0° C | 85% | 1019.6 hPa | 0 mm | - | 0 W/m² | - |
| 1777545660 | 0.56° C | 83% | 1019.7 hPa | 0 mm | - | 0 W/m² | - |
| 1777532438 | 5° C | 63% | 1019.4 hPa | 0 mm | - | 0 W/m² | - |
| 1777525837 | 7.78° C | 51% | 1019.4 hPa | 0 mm | - | 0 W/m² | - |
| 1777524644 | 8.33° C | 50% | 1019.3 hPa | 0 mm | - | 0 W/m² | - |
| 1777521644 | 12.22° C | 40% | 1019.1 hPa | 0 mm | - | 0 W/m² | - |
| 1777519819 | 12.22° C | 38% | 1018.7 hPa | 0 mm | - | 0 W/m² | - |
| 1777518616 | 12.78° C | 37% | 1018.4 hPa | 0 mm | - | 0 W/m² | - |
| 1777516821 | 13.89° C | 34% | 1018 hPa | 0 mm | - | 10 W/m² | - |
* Rain latest hour (hover to see other rain measurements)
** Current wind speed in m/s (hover to see current wind gust speed)